Time;durP1;ratioP1;P1;durP2;ratioP2;P2;SDS_P1;SDS_P2;PMS_P1;PMS_P2;Temp;Humidity;BMP_temperature;BMP_pressure;BME280_temperature;BME280_humidity;BME280_pressure;Samples;Min_cycle;Max_cycle;Signal;HPM_P1;HPM_P2
2022/04/21 00:02:13;;;;;;;;;;;;;;;;;;5040089;28;19925;-74
2022/04/21 00:04:40;;;;;;;;;;;;;;;;;;5029527;28;20395;-74
2022/04/21 00:07:06;;;;;;;;;;;;;;;;;;5029328;28;19925;-74
2022/04/21 00:09:32;;;;;;;;;;;;;;;;;;5029047;28;19925;-74
2022/04/21 00:11:58;;;;;;;;;;;;;;;;;;5030838;28;20384;-72
2022/04/21 00:14:24;;;;;;;;;;;;;;;;;;5038988;28;19935;-72
2022/04/21 00:16:50;;;;;;;;;;;;;;;;;;5041855;28;19925;-72
2022/04/21 00:19:17;;;;;;;;;;;;;;;;;;5028768;28;19932;-72
2022/04/21 00:24:27;;;;;;;;;;;;;;;;;;5028436;28;19936;-72
2022/04/21 00:26:53;;;;;;;;;;;;;;;;;;5034092;28;19932;-72
2022/04/21 00:29:19;;;;;;;;;;;;;;;;;;5048636;28;19932;-72
2022/04/21 00:31:45;;;;;;;;;;;;;;;;;;5040534;28;19936;-72
2022/04/21 00:34:11;;;;;;;;;;;;;;;;;;5027901;28;19936;-72
2022/04/21 00:36:37;;;;;;;;;;;;;;;;;;5028827;28;20410;-72
2022/04/21 00:39:04;;;;;;;;;;;;;;;;;;5028775;28;19960;-72
2022/04/21 00:41:30;;;;;;;;;;;;;;;;;;5030939;28;19925;-72
2022/04/21 00:43:56;;;;;;;;;;;;;;;;;;5038350;28;19988;-72
2022/04/21 00:46:22;;;;;;;;;;;;;;;;;;5050387;28;19925;-72
2022/04/21 00:48:48;;;;;;;;;;;;;;;;;;5043042;28;19981;-72
2022/04/21 00:51:14;;;;;;;;;;;;;;;;;;5032192;28;19936;-72
2022/04/21 00:53:41;;;;;;;;;;;;;;;;;;5031789;28;19936;-72
2022/04/21 00:56:07;;;;;;;;;;;;;;;;;;5031783;28;19970;-72
2022/04/21 00:58:33;;;;;;;;;;;;;;;;;;5047344;28;19936;-72
2022/04/21 01:00:59;;;;;;;;;;;;;;;;;;5051714;28;19932;-72
2022/04/21 01:03:24;;;;;;;;;;;;;;;;;;5043702;28;20304;-72
2022/04/21 01:05:51;;;;;;;;;;;;;;;;;;5042358;28;19928;-72
2022/04/21 01:08:17;;;;;;;;;;;;;;;;;;5031788;28;19929;-72
2022/04/21 01:10:43;;;;;;;;;;;;;;;;;;5047301;28;19925;-72
2022/04/21 01:13:09;;;;;;;;;;;;;;;;;;5031203;28;19925;-72
2022/04/21 01:15:36;;;;;;;;;;;;;;;;;;5050074;28;20292;-72
2022/04/21 01:18:02;;;;;;;;;;;;;;;;;;5051667;28;19929;-72
2022/04/21 01:20:28;;;;;;;;;;;;;;;;;;5036311;28;19935;-72
2022/04/21 01:22:54;;;;;;;;;;;;;;;;;;5050823;28;20391;-73
2022/04/21 01:25:20;;;;;;;;;;;;;;;;;;5035313;28;19953;-72
2022/04/21 01:27:47;;;;;;;;;;;;;;;;;;5037055;28;19924;-72
2022/04/21 01:30:13;;;;;;;;;;;;;;;;;;5048431;28;19931;-72
2022/04/21 01:32:39;;;;;;;;;;;;;;;;;;5050652;28;20402;-72
2022/04/21 01:35:05;;;;;;;;;;;;;;;;;;5050260;28;20276;-72
2022/04/21 01:42:59;;;;;;;;;;;;;;;;;;5030116;28;20822;-72
2022/04/21 01:45:25;;;;;;;;;;;;;;;;;;5031656;28;19956;-72
2022/04/21 01:47:51;;;;;;;;;;;;;;;;;;5031482;28;19945;-72
2022/04/21 01:50:18;;;;;;;;;;;;;;;;;;5048148;28;19924;-72
2022/04/21 01:52:44;;;;;;;;;;;;;;;;;;5048270;28;20019;-72
2022/04/21 01:55:11;;;;;;;;;;;;;;;;;;5033100;28;20370;-72
2022/04/21 01:57:37;;;;;;;;;;;;;;;;;;5035298;28;19925;-72
2022/04/21 02:00:04;;;;;;;;;;;;;;;;;;5051085;28;19925;-72
2022/04/21 02:02:32;;;;;;;;;;;;;;;;;;5049483;28;19944;-72
2022/04/21 02:04:59;;;;;;;;;;;;;;;;;;5050545;28;19929;-72
2022/04/21 02:07:25;;;;;;;;;;;;;;;;;;5049358;28;19935;-72
2022/04/21 02:09:51;;;;;;;;;;;;;;;;;;5049341;28;19925;-72
2022/04/21 02:12:17;;;;;;;;;;;;;;;;;;5050391;28;19925;-72
2022/04/21 02:14:43;;;;;;;;;;;;;;;;;;5049772;28;20007;-72
2022/04/21 02:17:10;;;;;;;;;;;;;;;;;;5049867;28;19924;-72
2022/04/21 02:19:36;;;;;;;;;;;;;;;;;;5049219;28;19928;-72
2022/04/21 02:22:02;;;;;;;;;;;;;;;;;;5050360;28;20395;-72
2022/04/21 02:24:28;;;;;;;;;;;;;;;;;;5032765;28;20299;-72
2022/04/21 02:26:54;;;;;;;;;;;;;;;;;;5030948;28;19925;-72
2022/04/21 02:29:20;;;;;;;;;;;;;;;;;;5047278;28;20384;-72
2022/04/21 02:31:47;;;;;;;;;;;;;;;;;;5050302;28;20307;-72
2022/04/21 02:34:13;;;;;;;;;;;;;;;;;;5048494;28;19925;-72
2022/04/21 02:36:39;;;;;;;;;;;;;;;;;;5030882;28;19925;-72
2022/04/21 02:39:05;;;;;;;;;;;;;;;;;;5031314;28;19925;-72
2022/04/21 02:41:31;;;;;;;;;;;;;;;;;;5035879;28;19925;-72
2022/04/21 02:43:57;;;;;;;;;;;;;;;;;;5030912;28;19925;-72
2022/04/21 02:46:23;;;;;;;;;;;;;;;;;;5047490;28;20272;-72
2022/04/21 02:48:50;;;;;;;;;;;;;;;;;;5042656;28;19925;-72
2022/04/21 02:51:16;;;;;;;;;;;;;;;;;;5052279;28;19929;-72
2022/04/21 02:59:10;;;;;;;;;;;;;;;;;;5043463;28;19970;-72
2022/04/21 03:01:36;;;;;;;;;;;;;;;;;;5051116;28;19935;-72
2022/04/21 03:04:02;;;;;;;;;;;;;;;;;;5046358;28;19925;-72
2022/04/21 03:06:28;;;;;;;;;;;;;;;;;;5029388;28;19929;-72
2022/04/21 03:08:54;;;;;;;;;;;;;;;;;;5030325;28;19925;-72
2022/04/21 03:11:21;;;;;;;;;;;;;;;;;;5031793;28;19925;-72
2022/04/21 03:13:47;;;;;;;;;;;;;;;;;;5049374;28;19933;-72
2022/04/21 03:16:13;;;;;;;;;;;;;;;;;;5031857;28;19925;-72
2022/04/21 03:18:39;;;;;;;;;;;;;;;;;;5029790;28;19925;-72
2022/04/21 03:26:33;;;;;;;;;;;;;;;;;;5048716;28;19981;-72
2022/04/21 03:28:59;;;;;;;;;;;;;;;;;;5049440;28;20412;-72
2022/04/21 03:31:25;;;;;;;;;;;;;;;;;;5049449;28;19952;-72
2022/04/21 03:33:51;;;;;;;;;;;;;;;;;;5034159;28;19932;-72
2022/04/21 03:36:17;;;;;;;;;;;;;;;;;;5030529;28;19932;-72
2022/04/21 03:38:43;;;;;;;;;;;;;;;;;;5041466;28;19925;-72
2022/04/21 03:41:10;;;;;;;;;;;;;;;;;;5029677;28;20388;-72
2022/04/21 03:43:36;;;;;;;;;;;;;;;;;;5040890;28;19932;-72
2022/04/21 03:46:02;;;;;;;;;;;;;;;;;;5050026;28;20382;-72
2022/04/21 03:48:29;;;;;;;;;;;;;;;;;;5048385;28;19929;-72
2022/04/21 03:50:55;;;;;;;;;;;;;;;;;;5049865;28;20011;-72
2022/04/21 03:53:21;;;;;;;;;;;;;;;;;;5038813;28;19939;-72
2022/04/21 03:55:47;;;;;;;;;;;;;;;;;;5029616;28;19932;-72
2022/04/21 03:58:14;;;;;;;;;;;;;;;;;;5029436;28;19931;-72
2022/04/21 04:00:40;;;;;;;;;;;;;;;;;;5049536;28;19929;-72
2022/04/21 04:03:06;;;;;;;;;;;;;;;;;;5048487;28;20383;-72
2022/04/21 04:05:32;;;;;;;;;;;;;;;;;;5030714;28;20437;-72
2022/04/21 04:10:54;;;;;;;;;;;;;;;;;;5047754;28;19957;-72
2022/04/21 04:13:20;;;;;;;;;;;;;;;;;;5038635;28;19925;-72
2022/04/21 04:15:48;;;;;;;;;;;;;;;;;;5048240;28;19928;-72
2022/04/21 04:18:14;;;;;;;;;;;;;;;;;;5050593;28;19925;-72
2022/04/21 04:20:40;;;;;;;;;;;;;;;;;;5052461;28;19929;-72
2022/04/21 04:23:07;;;;;;;;;;;;;;;;;;5050528;28;19928;-72
2022/04/21 04:25:33;;;;;;;;;;;;;;;;;;5047753;28;20404;-72
2022/04/21 04:27:59;;;;;;;;;;;;;;;;;;5053044;28;19928;-72
2022/04/21 04:30:25;;;;;;;;;;;;;;;;;;5038250;28;19925;-72
2022/04/21 04:32:51;;;;;;;;;;;;;;;;;;5033227;28;20302;-72
2022/04/21 04:35:18;;;;;;;;;;;;;;;;;;5033613;28;19925;-72
2022/04/21 04:37:44;;;;;;;;;;;;;;;;;;5032595;28;19925;-72
2022/04/21 04:40:10;;;;;;;;;;;;;;;;;;5035170;28;19977;-72
2022/04/21 04:42:35;;;;;;;;;;;;;;;;;;5051680;28;20339;-72
2022/04/21 04:47:45;;;;;;;;;;;;;;;;;;5046566;28;19973;-72
2022/04/21 04:50:12;;;;;;;;;;;;;;;;;;5051424;28;20388;-72
2022/04/21 04:52:38;;;;;;;;;;;;;;;;;;5051866;28;19928;-72
2022/04/21 04:55:04;;;;;;;;;;;;;;;;;;5051275;28;19932;-72
2022/04/21 04:57:31;;;;;;;;;;;;;;;;;;5039997;28;19925;-72
2022/04/21 04:59:57;;;;;;;;;;;;;;;;;;5032172;28;20016;-72
2022/04/21 05:02:23;;;;;;;;;;;;;;;;;;5032372;28;20027;-72
2022/04/21 05:04:49;;;;;;;;;;;;;;;;;;5044484;28;19925;-74
2022/04/21 05:07:17;;;;;;;;;;;;;;;;;;5035908;28;19925;-74
2022/04/21 05:09:43;;;;;;;;;;;;;;;;;;5032084;28;19925;-75
2022/04/21 05:12:09;;;;;;;;;;;;;;;;;;5041319;28;20411;-74
2022/04/21 05:14:36;;;;;;;;;;;;;;;;;;5046135;28;19931;-75
2022/04/21 05:17:02;;;;;;;;;;;;;;;;;;5040988;28;20403;-74
2022/04/21 05:19:28;;;;;;;;;;;;;;;;;;5051729;28;19938;-75
2022/04/21 05:21:54;;;;;;;;;;;;;;;;;;5048394;28;19932;-75
2022/04/21 05:24:20;;;;;;;;;;;;;;;;;;5051520;28;19932;-75
2022/04/21 05:26:46;;;;;;;;;;;;;;;;;;5049571;28;19943;-75
2022/04/21 05:31:56;;;;;;;;;;;;;;;;;;5034991;28;20378;-74
2022/04/21 05:34:22;;;;;;;;;;;;;;;;;;5035605;28;19925;-75
2022/04/21 05:36:49;;;;;;;;;;;;;;;;;;5031418;28;19932;-75
2022/04/21 05:39:15;;;;;;;;;;;;;;;;;;5031122;28;20392;-75
2022/04/21 05:41:41;;;;;;;;;;;;;;;;;;5046080;28;19925;-75
2022/04/21 05:44:08;;;;;;;;;;;;;;;;;;5050470;28;20284;-75
2022/04/21 05:46:34;;;;;;;;;;;;;;;;;;5036675;28;19935;-76
2022/04/21 05:49:00;;;;;;;;;;;;;;;;;;5030233;27;19925;-76
2022/04/21 05:51:26;;;;;;;;;;;;;;;;;;5031366;28;19929;-75
2022/04/21 05:53:53;;;;;;;;;;;;;;;;;;5011905;28;20384;-75
2022/04/21 05:56:19;;;;;;;;;;;;;;;;;;5031452;28;19946;-76
2022/04/21 05:58:45;;;;;;;;;;;;;;;;;;5025874;28;19926;-75
2022/04/21 06:01:11;;;;;;;;;;;;;;;;;;5023118;27;19953;-75
2022/04/21 06:03:38;;;;;;;;;;;;;;;;;;5078756;27;19929;-75
2022/04/21 06:06:04;;;;;;;;;;;;;;;;;;5031345;28;19933;-74
2022/04/21 06:08:30;;;;;;;;;;;;;;;;;;5030642;28;19932;-74
2022/04/21 06:10:57;;;;;;;;;;;;;;;;;;5025485;28;19926;-76
2022/04/21 06:13:23;;;;;;;;;;;;;;;;;;5103816;22;19924;-69
2022/04/21 06:15:49;;;;;;;;;;;;;;;;;;5072927;28;19930;-71
2022/04/21 06:18:15;;;;;;;;;;;;;;;;;;5070376;28;19935;-69
2022/04/21 06:20:41;;;;;;;;;;;;;;;;;;5069598;28;19978;-69
2022/04/21 06:23:08;;;;;;;;;;;;;;;;;;5069690;28;19931;-69
2022/04/21 06:25:34;;;;;;;;;;;;;;;;;;5056918;28;19931;-69
2022/04/21 06:28:00;;;;;;;;;;;;;;;;;;5073086;28;20323;-69
2022/04/21 06:30:26;;;;;;;;;;;;;;;;;;5061893;28;20023;-69
2022/04/21 06:32:53;;;;;;;;;;;;;;;;;;5064045;28;19925;-69
2022/04/21 06:35:19;;;;;;;;;;;;;;;;;;5053314;28;19924;-69
2022/04/21 06:37:46;;;;;;;;;;;;;;;;;;5063409;28;19933;-69
2022/04/21 06:40:12;;;;;;;;;;;;;;;;;;5070044;28;20491;-69
2022/04/21 06:42:42;;;;;;;;;;;;;;;;;;5072658;28;19947;-69
2022/04/21 06:48:03;;;;;;;;;;;;;;;;;;5042550;28;19920;-69
2022/04/21 06:50:29;;;;;;;;;;;;;;;;;;5069599;28;19939;-68
2022/04/21 06:52:55;;;;;;;;;;;;;;;;;;5068960;28;19928;-69
2022/04/21 06:55:21;;;;;;;;;;;;;;;;;;5072850;28;19925;-69
2022/04/21 06:57:48;;;;;;;;;;;;;;;;;;5053409;28;19931;-69
2022/04/21 07:00:14;;;;;;;;;;;;;;;;;;5033097;28;19987;-69
2022/04/21 07:02:41;;;;;;;;;;;;;;;;;;5044249;28;19932;-69
2022/04/21 07:05:07;;;;;;;;;;;;;;;;;;5068084;28;19928;-70
2022/04/21 07:07:34;;;;;;;;;;;;;;;;;;5053090;28;19925;-69
2022/04/21 07:10:01;;;;;;;;;;;;;;;;;;5052075;28;19932;-69
2022/04/21 07:12:27;;;;;;;;;;;;;;;;;;5065409;28;19958;-69
2022/04/21 07:14:53;;;;;;;;;;;;;;;;;;5072526;28;19924;-69
2022/04/21 07:17:20;;;;;;;;;;;;;;;;;;5067109;28;19933;-70
2022/04/21 07:19:46;;;;;;;;;;;;;;;;;;5054592;28;19936;-69
2022/04/21 07:22:12;;;;;;;;;;;;;;;;;;5064975;28;19928;-69
2022/04/21 07:24:38;;;;;;;;;;;;;;;;;;5071146;28;20376;-70
2022/04/21 07:27:04;;;;;;;;;;;;;;;;;;5067155;28;19924;-69
2022/04/21 07:29:31;;;;;;;;;;;;;;;;;;5067776;28;19925;-69
2022/04/21 07:31:57;;;;;;;;;;;;;;;;;;5054702;28;19979;-69
2022/04/21 07:34:23;;;;;;;;;;;;;;;;;;5067748;28;19924;-69
2022/04/21 07:36:49;;;;;;;;;;;;;;;;;;5054821;28;19974;-69
2022/04/21 07:39:16;;;;;;;;;;;;;;;;;;5066825;28;19936;-69
2022/04/21 07:41:42;;;;;;;;;;;;;;;;;;5055595;28;20412;-69
2022/04/21 07:44:08;;;;;;;;;;;;;;;;;;5052789;28;20350;-69
2022/04/21 07:46:36;;;;;;;;;;;;;;;;;;5055706;28;19928;-69
2022/04/21 07:51:46;;;;;;;;;;;;;;;;;;5068047;28;20389;-69
2022/04/21 07:54:11;;;;;;;;;;;;;;;;;;5032183;28;19948;-69
2022/04/21 07:56:37;;;;;;;;;;;;;;;;;;5044871;28;20380;-69
2022/04/21 07:59:03;;;;;;;;;;;;;;;;;;5071780;28;19925;-69
2022/04/21 08:01:29;;;;;;;;;;;;;;;;;;5066697;28;19935;-69
2022/04/21 08:04:01;;;;;;;;;;;;;;;;;;5068125;28;19932;-70
2022/04/21 08:06:28;;;;;;;;;;;;;;;;;;5069103;28;20405;-70
2022/04/21 08:08:55;;;;;;;;;;;;;;;;;;5070601;28;20011;-69
2022/04/21 08:11:21;;;;;;;;;;;;;;;;;;5067592;28;19924;-69
2022/04/21 08:13:47;;;;;;;;;;;;;;;;;;5056904;28;19967;-69
2022/04/21 08:16:13;;;;;;;;;;;;;;;;;;5068387;28;20303;-70
2022/04/21 08:18:39;;;;;;;;;;;;;;;;;;5071401;28;19931;-69
2022/04/21 08:21:05;;;;;;;;;;;;;;;;;;5068700;28;19936;-69
2022/04/21 08:23:32;;;;;;;;;;;;;;;;;;5052493;28;19925;-69
2022/04/21 08:34:18;;;;;;;;;;;;;;;;;;5031333;28;19936;-69
2022/04/21 08:36:44;;;;;;;;;;;;;;;;;;5041066;28;19932;-69
2022/04/21 08:39:10;;;;;;;;;;;;;;;;;;5071749;28;19924;-69
2022/04/21 08:41:36;;;;;;;;;;;;;;;;;;5055611;28;19928;-69
2022/04/21 08:44:03;;;;;;;;;;;;;;;;;;5051149;28;20287;-70
2022/04/21 08:46:29;;;;;;;;;;;;;;;;;;5055664;28;20283;-69
2022/04/21 08:48:55;;;;;;;;;;;;;;;;;;5065087;28;19939;-69
2022/04/21 08:51:23;;;;;;;;;;;;;;;;;;5052517;28;19936;-69
2022/04/21 08:53:49;;;;;;;;;;;;;;;;;;5071718;28;20283;-69
2022/04/21 08:56:15;;;;;;;;;;;;;;;;;;5070901;28;19924;-69
2022/04/21 08:58:41;;;;;;;;;;;;;;;;;;5071636;28;19924;-69
2022/04/21 09:01:07;;;;;;;;;;;;;;;;;;5070975;28;19931;-69
2022/04/21 09:03:35;;;;;;;;;;;;;;;;;;5065454;28;19925;-69
2022/04/21 09:06:01;;;;;;;;;;;;;;;;;;5074447;28;20390;-69
2022/04/21 09:08:27;;;;;;;;;;;;;;;;;;5073791;28;19925;-70
2022/04/21 09:10:54;;;;;;;;;;;;;;;;;;5076261;28;19934;-70
2022/04/21 09:13:20;;;;;;;;;;;;;;;;;;5070380;28;19924;-69
2022/04/21 09:15:46;;;;;;;;;;;;;;;;;;5076132;28;19928;-69
2022/04/21 09:18:13;;;;;;;;;;;;;;;;;;5073099;28;19931;-69
2022/04/21 09:20:39;;;;;;;;;;;;;;;;;;5072440;28;20023;-69
2022/04/21 09:23:06;;;;;;;;;;;;;;;;;;5067668;28;19924;-69
2022/04/21 09:25:32;;;;;;;;;;;;;;;;;;5056099;28;20503;-69
2022/04/21 09:27:58;;;;;;;;;;;;;;;;;;5073947;28;19924;-69
2022/04/21 09:30:24;;;;;;;;;;;;;;;;;;5075494;28;19928;-69
2022/04/21 09:32:51;;;;;;;;;;;;;;;;;;5061233;28;20387;-69
2022/04/21 09:35:17;;;;;;;;;;;;;;;;;;5061039;28;20391;-69
2022/04/21 09:37:43;;;;;;;;;;;;;;;;;;5059133;28;19931;-69
2022/04/21 09:40:09;;;;;;;;;;;;;;;;;;5067642;28;19931;-69
2022/04/21 09:42:35;;;;;;;;;;;;;;;;;;5082559;28;19924;-68
2022/04/21 09:47:46;;;;;;;;;;;;;;;;;;5063260;28;20425;-69
2022/04/21 09:50:12;;;;;;;;;;;;;;;;;;5074561;28;19924;-69
2022/04/21 09:52:38;;;;;;;;;;;;;;;;;;5072865;28;19929;-69
2022/04/21 09:55:05;;;;;;;;;;;;;;;;;;5075180;28;19925;-69
2022/04/21 09:57:31;;;;;;;;;;;;;;;;;;5071879;28;19924;-69
2022/04/21 09:59:57;;;;;;;;;;;;;;;;;;5074830;28;19938;-69
2022/04/21 10:02:23;;;;;;;;;;;;;;;;;;5054965;28;20307;-69
2022/04/21 10:04:50;;;;;;;;;;;;;;;;;;5074210;28;19928;-69
2022/04/21 10:07:16;;;;;;;;;;;;;;;;;;5056420;28;19928;-69
2022/04/21 10:09:42;;;;;;;;;;;;;;;;;;5074465;28;19924;-69
2022/04/21 10:12:08;;;;;;;;;;;;;;;;;;5058043;28;19925;-69
2022/04/21 10:14:34;;;;;;;;;;;;;;;;;;5054784;28;20283;-69
2022/04/21 10:17:00;;;;;;;;;;;;;;;;;;5073864;28;19958;-69
2022/04/21 10:19:27;;;;;;;;;;;;;;;;;;5071780;28;19933;-69
2022/04/21 10:21:53;;;;;;;;;;;;;;;;;;5065356;28;20015;-69
2022/04/21 10:24:19;;;;;;;;;;;;;;;;;;5070807;28;20775;-69
2022/04/21 10:26:45;;;;;;;;;;;;;;;;;;5054569;28;19925;-69
2022/04/21 10:29:11;;;;;;;;;;;;;;;;;;5053738;28;19925;-69
2022/04/21 10:31:38;;;;;;;;;;;;;;;;;;5054311;28;19935;-69
2022/04/21 10:34:04;;;;;;;;;;;;;;;;;;5053807;28;19983;-69
2022/04/21 10:36:30;;;;;;;;;;;;;;;;;;5071658;28;19924;-69
2022/04/21 10:38:56;;;;;;;;;;;;;;;;;;5074591;28;20337;-69
2022/04/21 10:41:23;;;;;;;;;;;;;;;;;;5057313;28;19925;-69
2022/04/21 10:43:49;;;;;;;;;;;;;;;;;;5063723;28;19925;-77
2022/04/21 10:46:15;;;;;;;;;;;;;;;;;;5040673;28;19925;-76
2022/04/21 10:48:41;;;;;;;;;;;;;;;;;;5040673;28;19929;-75
2022/04/21 10:51:07;;;;;;;;;;;;;;;;;;5034770;28;19925;-76
2022/04/21 10:58:57;;;;;;;;;;;;;;;;;;5051562;28;19974;-72
2022/04/21 11:01:23;;;;;;;;;;;;;;;;;;5048678;28;20590;-71
2022/04/21 11:03:50;;;;;;;;;;;;;;;;;;5036730;28;20411;-71
2022/04/21 11:06:18;;;;;;;;;;;;;;;;;;5053025;28;19947;-74
2022/04/21 11:08:44;;;;;;;;;;;;;;;;;;5056226;28;20406;-73
2022/04/21 11:11:11;;;;;;;;;;;;;;;;;;5054050;28;19931;-74
2022/04/21 11:13:38;;;;;;;;;;;;;;;;;;5052126;28;19929;-74
2022/04/21 11:16:04;;;;;;;;;;;;;;;;;;5054347;28;19931;-73
2022/04/21 11:18:30;;;;;;;;;;;;;;;;;;5054105;28;19925;-74
2022/04/21 11:20:57;;;;;;;;;;;;;;;;;;5057207;28;19925;-73
2022/04/21 11:23:23;;;;;;;;;;;;;;;;;;5056793;28;19925;-73
2022/04/21 11:25:49;;;;;;;;;;;;;;;;;;5071536;28;19924;-73
2022/04/21 11:28:16;;;;;;;;;;;;;;;;;;5061847;28;20361;-74
2022/04/21 11:30:43;;;;;;;;;;;;;;;;;;5069813;28;19925;-73
2022/04/21 11:33:11;;;;;;;;;;;;;;;;;;5069250;28;20328;-73
2022/04/21 11:35:38;;;;;;;;;;;;;;;;;;5050139;28;19936;-73
2022/04/21 11:38:04;;;;;;;;;;;;;;;;;;5050468;28;19925;-73
2022/04/21 11:40:31;;;;;;;;;;;;;;;;;;5051355;28;19932;-73
2022/04/21 11:42:57;;;;;;;;;;;;;;;;;;5050451;28;20700;-73
2022/04/21 11:45:23;;;;;;;;;;;;;;;;;;5051524;28;19924;-73
2022/04/21 11:47:49;;;;;;;;;;;;;;;;;;5044323;28;19924;-74
2022/04/21 11:50:15;;;;;;;;;;;;;;;;;;5052379;28;20372;-74
2022/04/21 11:52:42;;;;;;;;;;;;;;;;;;5048200;28;19931;-73
2022/04/21 11:55:08;;;;;;;;;;;;;;;;;;5053088;28;20379;-73
2022/04/21 11:57:34;;;;;;;;;;;;;;;;;;5052880;28;19929;-73
2022/04/21 12:00:01;;;;;;;;;;;;;;;;;;5053098;28;19924;-74
2022/04/21 12:08:09;;;;;;;;;;;;;;;;;;4979428;28;19921;-73
2022/04/21 12:10:35;;;;;;;;;;;;;;;;;;5005126;28;20300;-73
2022/04/21 12:13:02;;;;;;;;;;;;;;;;;;5066365;22;20019;-73
2022/04/21 12:15:28;;;;;;;;;;;;;;;;;;5048588;28;19994;-74
2022/04/21 12:17:55;;;;;;;;;;;;;;;;;;5051201;28;20268;-74
2022/04/21 12:20:21;;;;;;;;;;;;;;;;;;5051564;28;19933;-74
2022/04/21 12:22:47;;;;;;;;;;;;;;;;;;5047775;28;19951;-73
2022/04/21 12:25:14;;;;;;;;;;;;;;;;;;5030484;28;19932;-73
2022/04/21 12:27:40;;;;;;;;;;;;;;;;;;5030953;28;20023;-74
2022/04/21 12:30:06;;;;;;;;;;;;;;;;;;5030961;28;20387;-74
2022/04/21 12:32:32;;;;;;;;;;;;;;;;;;5030049;28;20300;-74
2022/04/21 12:34:58;;;;;;;;;;;;;;;;;;5030162;28;19925;-74
2022/04/21 12:37:25;;;;;;;;;;;;;;;;;;5028304;28;19925;-73
2022/04/21 12:39:51;;;;;;;;;;;;;;;;;;5030336;28;19933;-73
2022/04/21 12:42:17;;;;;;;;;;;;;;;;;;5034597;28;19931;-73
2022/04/21 12:44:44;;;;;;;;;;;;;;;;;;5034170;28;20582;-73
2022/04/21 12:47:10;;;;;;;;;;;;;;;;;;5034630;28;20356;-74
2022/04/21 12:49:36;;;;;;;;;;;;;;;;;;5034964;28;19932;-73
2022/04/21 12:52:02;;;;;;;;;;;;;;;;;;5035020;28;19932;-74
2022/04/21 12:54:29;;;;;;;;;;;;;;;;;;5034188;28;19925;-73
2022/04/21 12:56:55;;;;;;;;;;;;;;;;;;5034238;28;19975;-74
2022/04/21 12:59:22;;;;;;;;;;;;;;;;;;5034450;28;19995;-73
2022/04/21 13:01:48;;;;;;;;;;;;;;;;;;5032924;28;19971;-74
2022/04/21 13:04:14;;;;;;;;;;;;;;;;;;5034311;28;20483;-74
2022/04/21 13:06:43;;;;;;;;;;;;;;;;;;5034526;28;19933;-73
2022/04/21 13:09:09;;;;;;;;;;;;;;;;;;5035097;28;19925;-73
2022/04/21 13:11:35;;;;;;;;;;;;;;;;;;5034578;28;19925;-73
2022/04/21 13:14:02;;;;;;;;;;;;;;;;;;5033695;28;20419;-73
2022/04/21 13:16:28;;;;;;;;;;;;;;;;;;5035193;28;19925;-73
2022/04/21 13:18:56;;;;;;;;;;;;;;;;;;5034784;28;19929;-73
2022/04/21 13:24:07;;;;;;;;;;;;;;;;;;5033851;28;20438;-73
2022/04/21 13:26:33;;;;;;;;;;;;;;;;;;5034341;28;19925;-73
2022/04/21 13:29:00;;;;;;;;;;;;;;;;;;5034105;28;20392;-73
2022/04/21 13:34:10;;;;;;;;;;;;;;;;;;5027330;28;20400;-73
2022/04/21 13:36:36;;;;;;;;;;;;;;;;;;5034171;28;19925;-74
2022/04/21 13:39:03;;;;;;;;;;;;;;;;;;5033965;28;19929;-74
2022/04/21 13:41:29;;;;;;;;;;;;;;;;;;5033001;28;19925;-74
2022/04/21 13:43:55;;;;;;;;;;;;;;;;;;5037340;28;19956;-74
2022/04/21 13:46:21;;;;;;;;;;;;;;;;;;5033174;28;19940;-74
2022/04/21 13:48:47;;;;;;;;;;;;;;;;;;5033413;28;20308;-73
2022/04/21 13:51:14;;;;;;;;;;;;;;;;;;5033509;28;20411;-73
2022/04/21 13:53:41;;;;;;;;;;;;;;;;;;5030075;28;19929;-73
2022/04/21 13:56:07;;;;;;;;;;;;;;;;;;5033911;28;20415;-73
2022/04/21 13:58:33;;;;;;;;;;;;;;;;;;5031548;28;20049;-73
2022/04/21 14:00:59;;;;;;;;;;;;;;;;;;5033989;28;19925;-74
2022/04/21 14:03:26;;;;;;;;;;;;;;;;;;5031892;28;20297;-73
2022/04/21 14:05:52;;;;;;;;;;;;;;;;;;5014300;28;19934;-73
2022/04/21 14:08:18;;;;;;;;;;;;;;;;;;5016702;28;20007;-72
2022/04/21 14:10:44;;;;;;;;;;;;;;;;;;5033458;28;20392;-74
2022/04/21 14:13:11;;;;;;;;;;;;;;;;;;5031575;28;19925;-75
2022/04/21 14:15:38;;;;;;;;;;;;;;;;;;5034065;28;19932;-75
2022/04/21 14:18:04;;;;;;;;;;;;;;;;;;5032306;28;20418;-75
2022/04/21 14:20:30;;;;;;;;;;;;;;;;;;5033154;28;19925;-75
2022/04/21 14:22:57;;;;;;;;;;;;;;;;;;5031692;28;19925;-75
2022/04/21 14:25:23;;;;;;;;;;;;;;;;;;5024274;28;19925;-75
2022/04/21 14:27:49;;;;;;;;;;;;;;;;;;5033576;28;19925;-75
2022/04/21 14:30:15;;;;;;;;;;;;;;;;;;5033612;28;20308;-75
2022/04/21 14:32:41;;;;;;;;;;;;;;;;;;5030302;28;19931;-75
2022/04/21 14:35:08;;;;;;;;;;;;;;;;;;5033489;28;19931;-74
2022/04/21 14:45:45;;;;;;;;;;;;;;;;;;5013371;28;20413;-75
2022/04/21 14:48:11;;;;;;;;;;;;;;;;;;5023404;28;19951;-75
2022/04/21 14:50:38;;;;;;;;;;;;;;;;;;5032971;28;19925;-75
2022/04/21 14:53:05;;;;;;;;;;;;;;;;;;5029449;28;19925;-75
2022/04/21 14:55:31;;;;;;;;;;;;;;;;;;5032671;28;20369;-74
2022/04/21 14:57:58;;;;;;;;;;;;;;;;;;5032485;28;19925;-74
2022/04/21 15:00:24;;;;;;;;;;;;;;;;;;5032346;28;19964;-74
2022/04/21 15:02:52;;;;;;;;;;;;;;;;;;5028875;28;19933;-74
2022/04/21 15:05:18;;;;;;;;;;;;;;;;;;5014225;28;19925;-73
2022/04/21 15:07:44;;;;;;;;;;;;;;;;;;5024139;28;20392;-73
2022/04/21 15:10:11;;;;;;;;;;;;;;;;;;5032774;28;19925;-73
2022/04/21 15:12:37;;;;;;;;;;;;;;;;;;5030383;28;19925;-74
2022/04/21 15:15:03;;;;;;;;;;;;;;;;;;5031967;28;19925;-73
2022/04/21 15:17:29;;;;;;;;;;;;;;;;;;5032100;28;19925;-73
2022/04/21 15:19:55;;;;;;;;;;;;;;;;;;5032480;28;19925;-74
2022/04/21 15:22:22;;;;;;;;;;;;;;;;;;5032193;28;19941;-74
2022/04/21 15:24:52;;;;;;;;;;;;;;;;;;5025409;28;20428;-74
2022/04/21 15:27:18;;;;;;;;;;;;;;;;;;5029712;28;19964;-74
2022/04/21 15:29:45;;;;;;;;;;;;;;;;;;5029835;28;19932;-73
2022/04/21 15:32:11;;;;;;;;;;;;;;;;;;5031757;28;19929;-74
2022/04/21 15:34:37;;;;;;;;;;;;;;;;;;5014700;28;19925;-74
2022/04/21 15:37:03;;;;;;;;;;;;;;;;;;5012688;28;19930;-75
2022/04/21 15:39:29;;;;;;;;;;;;;;;;;;5013209;28;19926;-74
2022/04/21 15:41:55;;;;;;;;;;;;;;;;;;5027410;28;19932;-74
2022/04/21 15:44:21;;;;;;;;;;;;;;;;;;5025746;28;20404;-74
2022/04/21 15:46:48;;;;;;;;;;;;;;;;;;5030716;28;19929;-74
2022/04/21 15:49:14;;;;;;;;;;;;;;;;;;5027232;28;19929;-72
2022/04/21 15:51:43;;;;;;;;;;;;;;;;;;5031647;28;19925;-72
2022/04/21 15:59:36;;;;;;;;;;;;;;;;;;5031655;28;20544;-74
2022/04/21 16:02:02;;;;;;;;;;;;;;;;;;5031936;28;19929;-72
2022/04/21 16:04:29;;;;;;;;;;;;;;;;;;5023108;28;19925;-70
2022/04/21 16:06:55;;;;;;;;;;;;;;;;;;5030980;28;19925;-73
2022/04/21 16:09:21;;;;;;;;;;;;;;;;;;5030169;28;20392;-73
2022/04/21 16:11:47;;;;;;;;;;;;;;;;;;5029595;28;19929;-74
2022/04/21 16:14:13;;;;;;;;;;;;;;;;;;5031879;28;19935;-74
2022/04/21 16:16:39;;;;;;;;;;;;;;;;;;5035682;28;19932;-73
2022/04/21 16:19:05;;;;;;;;;;;;;;;;;;5035376;28;19929;-73
2022/04/21 16:21:32;;;;;;;;;;;;;;;;;;5027630;28;20304;-74
2022/04/21 16:23:58;;;;;;;;;;;;;;;;;;5015078;28;19926;-73
2022/04/21 16:26:24;;;;;;;;;;;;;;;;;;5020436;28;19971;-74
2022/04/21 16:28:51;;;;;;;;;;;;;;;;;;5035302;28;20000;-74
2022/04/21 16:31:17;;;;;;;;;;;;;;;;;;5020742;28;19925;-72
2022/04/21 16:33:43;;;;;;;;;;;;;;;;;;5015030;28;20519;-74
2022/04/21 16:36:10;;;;;;;;;;;;;;;;;;5028274;28;20975;-74
2022/04/21 16:38:36;;;;;;;;;;;;;;;;;;5034771;28;19925;-73
2022/04/21 16:41:02;;;;;;;;;;;;;;;;;;5029163;28;20285;-74
2022/04/21 16:43:28;;;;;;;;;;;;;;;;;;5032494;28;19925;-73
2022/04/21 16:45:54;;;;;;;;;;;;;;;;;;5016951;28;19932;-74
2022/04/21 16:48:21;;;;;;;;;;;;;;;;;;5015567;28;19925;-74
2022/04/21 16:50:47;;;;;;;;;;;;;;;;;;5025787;28;20350;-74
2022/04/21 16:53:13;;;;;;;;;;;;;;;;;;5034582;28;19929;-74
2022/04/21 16:55:39;;;;;;;;;;;;;;;;;;5015585;28;20449;-73
2022/04/21 16:58:05;;;;;;;;;;;;;;;;;;5015671;28;20328;-72
2022/04/21 17:03:15;;;;;;;;;;;;;;;;;;5025915;28;19961;-72
2022/04/21 17:05:41;;;;;;;;;;;;;;;;;;5015563;28;19929;-72
2022/04/21 17:08:07;;;;;;;;;;;;;;;;;;5026717;28;19925;-72
2022/04/21 17:10:34;;;;;;;;;;;;;;;;;;5029710;28;20269;-72
2022/04/21 17:13:00;;;;;;;;;;;;;;;;;;5033892;28;20023;-72
2022/04/21 17:15:26;;;;;;;;;;;;;;;;;;5034084;28;19932;-74
2022/04/21 17:17:52;;;;;;;;;;;;;;;;;;5034127;28;20389;-75
2022/04/21 17:20:18;;;;;;;;;;;;;;;;;;5034420;28;19925;-75
2022/04/21 17:22:44;;;;;;;;;;;;;;;;;;5033220;28;19925;-74
2022/04/21 17:25:11;;;;;;;;;;;;;;;;;;5034052;28;19936;-73
2022/04/21 17:27:37;;;;;;;;;;;;;;;;;;5034633;28;19964;-74
2022/04/21 17:30:03;;;;;;;;;;;;;;;;;;5033131;28;19929;-74
2022/04/21 17:32:30;;;;;;;;;;;;;;;;;;5024043;28;20019;-74
2022/04/21 17:34:56;;;;;;;;;;;;;;;;;;5023330;28;19931;-74
2022/04/21 17:37:22;;;;;;;;;;;;;;;;;;5031870;28;19929;-74
2022/04/21 17:39:48;;;;;;;;;;;;;;;;;;5029544;28;19925;-74
2022/04/21 17:42:14;;;;;;;;;;;;;;;;;;5033176;28;20281;-74
2022/04/21 17:44:40;;;;;;;;;;;;;;;;;;5033551;28;19932;-75
2022/04/21 17:47:07;;;;;;;;;;;;;;;;;;5033389;28;19933;-74
2022/04/21 17:49:33;;;;;;;;;;;;;;;;;;5032604;28;19975;-72
2022/04/21 17:51:59;;;;;;;;;;;;;;;;;;5033709;28;19925;-72
2022/04/21 17:54:25;;;;;;;;;;;;;;;;;;5032819;28;19925;-73
2022/04/21 17:56:51;;;;;;;;;;;;;;;;;;5033697;28;19929;-73